sensor_id;sensor_type;location;lat;lon;timestamp;pressure;altitude;pressure_sealevel;temperature;humidity
84055;BME280;74141;51.504;7.122;2023-12-07T00:01:39;101504.78;;;-0.09;100.00
84055;BME280;74141;51.504;7.122;2023-12-07T00:04:04;101496.75;;;-0.26;100.00
84055;BME280;74141;51.504;7.122;2023-12-07T00:06:29;101507.31;;;-0.14;100.00
84055;BME280;74141;51.504;7.122;2023-12-07T00:08:55;101507.88;;;-0.30;100.00
84055;BME280;74141;51.504;7.122;2023-12-07T00:11:22;101512.19;;;-0.30;100.00
84055;BME280;74141;51.504;7.122;2023-12-07T00:13:48;101516.75;;;-0.16;100.00
84055;BME280;74141;51.504;7.122;2023-12-07T00:16:13;101519.63;;;0.01;100.00
84055;BME280;74141;51.504;7.122;2023-12-07T00:18:39;101516.41;;;0.17;100.00
84055;BME280;74141;51.504;7.122;2023-12-07T00:21:04;101519.13;;;0.26;100.00
84055;BME280;74141;51.504;7.122;2023-12-07T00:23:29;101521.00;;;0.36;100.00
84055;BME280;74141;51.504;7.122;2023-12-07T00:25:55;101521.06;;;0.39;100.00
84055;BME280;74141;51.504;7.122;2023-12-07T00:28:20;101524.66;;;0.49;100.00
84055;BME280;74141;51.504;7.122;2023-12-07T00:30:45;101523.00;;;0.55;100.00
84055;BME280;74141;51.504;7.122;2023-12-07T00:33:10;101515.44;;;0.72;100.00
84055;BME280;74141;51.504;7.122;2023-12-07T00:35:36;101524.09;;;0.71;100.00
84055;BME280;74141;51.504;7.122;2023-12-07T00:38:02;101527.63;;;0.77;100.00
84055;BME280;74141;51.504;7.122;2023-12-07T00:40:27;101520.81;;;0.84;100.00
84055;BME280;74141;51.504;7.122;2023-12-07T00:42:53;101518.19;;;0.84;100.00
84055;BME280;74141;51.504;7.122;2023-12-07T00:45:19;101516.56;;;0.93;100.00
84055;BME280;74141;51.504;7.122;2023-12-07T00:47:45;101514.09;;;1.02;100.00
84055;BME280;74141;51.504;7.122;2023-12-07T00:50:13;101511.44;;;0.96;100.00
84055;BME280;74141;51.504;7.122;2023-12-07T00:52:39;101508.88;;;0.99;100.00
84055;BME280;74141;51.504;7.122;2023-12-07T00:55:05;101512.41;;;1.06;100.00
84055;BME280;74141;51.504;7.122;2023-12-07T00:57:31;101502.81;;;0.97;100.00
84055;BME280;74141;51.504;7.122;2023-12-07T00:59:56;101517.50;;;0.97;100.00
84055;BME280;74141;51.504;7.122;2023-12-07T01:02:21;101517.41;;;0.91;100.00
84055;BME280;74141;51.504;7.122;2023-12-07T01:04:46;101516.56;;;0.93;100.00
84055;BME280;74141;51.504;7.122;2023-12-07T01:07:12;101521.81;;;0.96;100.00
84055;BME280;74141;51.504;7.122;2023-12-07T01:09:37;101524.47;;;1.02;100.00
84055;BME280;74141;51.504;7.122;2023-12-07T01:12:02;101519.34;;;1.07;100.00
84055;BME280;74141;51.504;7.122;2023-12-07T01:14:28;101517.66;;;1.10;100.00
84055;BME280;74141;51.504;7.122;2023-12-07T01:16:53;101515.03;;;1.07;100.00
84055;BME280;74141;51.504;7.122;2023-12-07T01:19:19;101526.34;;;1.12;100.00
84055;BME280;74141;51.504;7.122;2023-12-07T01:21:44;101526.38;;;1.15;100.00
84055;BME280;74141;51.504;7.122;2023-12-07T01:24:10;101523.81;;;1.21;100.00
84055;BME280;74141;51.504;7.122;2023-12-07T01:26:35;101523.84;;;1.23;100.00
84055;BME280;74141;51.504;7.122;2023-12-07T01:29:01;101532.50;;;1.22;100.00
84055;BME280;74141;51.504;7.122;2023-12-07T01:31:26;101532.50;;;1.23;100.00
84055;BME280;74141;51.504;7.122;2023-12-07T01:33:51;101531.63;;;1.24;100.00
84055;BME280;74141;51.504;7.122;2023-12-07T01:36:17;101527.34;;;1.26;100.00
84055;BME280;74141;51.504;7.122;2023-12-07T01:38:42;101536.84;;;1.24;100.00
84055;BME280;74141;51.504;7.122;2023-12-07T01:41:09;101538.59;;;1.25;100.00
84055;BME280;74141;51.504;7.122;2023-12-07T01:43:34;101537.72;;;1.26;100.00
84055;BME280;74141;51.504;7.122;2023-12-07T01:45:59;101543.72;;;1.19;100.00
84055;BME280;74141;51.504;7.122;2023-12-07T01:48:26;101549.78;;;1.18;100.00
84055;BME280;74141;51.504;7.122;2023-12-07T01:50:52;101538.53;;;1.19;100.00
84055;BME280;74141;51.504;7.122;2023-12-07T01:53:19;101536.78;;;1.18;100.00
84055;BME280;74141;51.504;7.122;2023-12-07T01:55:47;101542.91;;;1.25;100.00
84055;BME280;74141;51.504;7.122;2023-12-07T01:58:13;101548.09;;;1.25;100.00
84055;BME280;74141;51.504;7.122;2023-12-07T02:00:39;101549.84;;;1.27;100.00
84055;BME280;74141;51.504;7.122;2023-12-07T02:03:11;101551.66;;;1.31;100.00
84055;BME280;74141;51.504;7.122;2023-12-07T02:05:37;101547.34;;;1.36;100.00
84055;BME280;74141;51.504;7.122;2023-12-07T02:08:12;101552.53;;;1.36;100.00
84055;BME280;74141;51.504;7.122;2023-12-07T02:10:37;101550.81;;;1.34;100.00
84055;BME280;74141;51.504;7.122;2023-12-07T02:13:11;101542.16;;;1.36;100.00
84055;BME280;74141;51.504;7.122;2023-12-07T02:15:37;101544.72;;;1.33;100.00
84055;BME280;74141;51.504;7.122;2023-12-07T02:18:31;101546.50;;;1.34;100.00
84055;BME280;74141;51.504;7.122;2023-12-07T02:21:40;101551.69;;;1.34;100.00
84055;BME280;74141;51.504;7.122;2023-12-07T02:24:18;101553.41;;;1.35;100.00
84055;BME280;74141;51.504;7.122;2023-12-07T02:26:45;101556.00;;;1.35;100.00
84055;BME280;74141;51.504;7.122;2023-12-07T02:29:14;101543.88;;;1.33;100.00
84055;BME280;74141;51.504;7.122;2023-12-07T02:31:39;101554.38;;;1.43;100.00
84055;BME280;74141;51.504;7.122;2023-12-07T02:34:11;101561.28;;;1.43;100.00
84055;BME280;74141;51.504;7.122;2023-12-07T02:36:38;101573.38;;;1.42;100.00
84055;BME280;74141;51.504;7.122;2023-12-07T02:39:13;101553.41;;;1.35;100.00
84055;BME280;74141;51.504;7.122;2023-12-07T02:41:39;101569.03;;;1.38;100.00
84055;BME280;74141;51.504;7.122;2023-12-07T02:44:11;101575.13;;;1.42;100.00
84055;BME280;74141;51.504;7.122;2023-12-07T02:46:37;101567.28;;;1.37;100.00
84055;BME280;74141;51.504;7.122;2023-12-07T02:49:11;101569.94;;;1.43;100.00
84055;BME280;74141;51.504;7.122;2023-12-07T02:51:36;101571.69;;;1.44;100.00
84055;BME280;74141;51.504;7.122;2023-12-07T02:54:11;101569.19;;;1.52;100.00
84055;BME280;74141;51.504;7.122;2023-12-07T02:56:36;101565.63;;;1.45;100.00
84055;BME280;74141;51.504;7.122;2023-12-07T02:59:11;101561.34;;;1.49;100.00
84055;BME280;74141;51.504;7.122;2023-12-07T03:01:36;101564.75;;;1.43;100.00
84055;BME280;74141;51.504;7.122;2023-12-07T03:04:01;101563.91;;;1.44;100.00
84055;BME280;74141;51.504;7.122;2023-12-07T03:06:26;101560.41;;;1.42;100.00
84055;BME280;74141;51.504;7.122;2023-12-07T03:08:52;101562.13;;;1.40;100.00
84055;BME280;74141;51.504;7.122;2023-12-07T03:11:17;101568.19;;;1.42;100.00
84055;BME280;74141;51.504;7.122;2023-12-07T03:13:42;101549.19;;;1.45;100.00
84055;BME280;74141;51.504;7.122;2023-12-07T03:16:08;101546.56;;;1.40;100.00
84055;BME280;74141;51.504;7.122;2023-12-07T03:18:35;101547.38;;;1.39;100.00
84055;BME280;74141;51.504;7.122;2023-12-07T03:21:01;101550.00;;;1.42;100.00
84055;BME280;74141;51.504;7.122;2023-12-07T03:23:27;101540.47;;;1.40;100.00
84055;BME280;74141;51.504;7.122;2023-12-07T03:25:53;101539.56;;;1.36;100.00
84055;BME280;74141;51.504;7.122;2023-12-07T03:28:18;101544.81;;;1.42;100.00
84055;BME280;74141;51.504;7.122;2023-12-07T03:30:43;101546.59;;;1.45;100.00
84055;BME280;74141;51.504;7.122;2023-12-07T03:33:08;101550.88;;;1.40;100.00
84055;BME280;74141;51.504;7.122;2023-12-07T03:35:34;101549.91;;;1.33;100.00
84055;BME280;74141;51.504;7.122;2023-12-07T03:37:59;101559.47;;;1.34;100.00
84055;BME280;74141;51.504;7.122;2023-12-07T03:40:24;101558.59;;;1.35;100.00
84055;BME280;74141;51.504;7.122;2023-12-07T03:42:49;101557.66;;;1.29;100.00
84055;BME280;74141;51.504;7.122;2023-12-07T03:45:15;101558.50;;;1.26;100.00
84055;BME280;74141;51.504;7.122;2023-12-07T03:47:40;101562.00;;;1.28;100.00
84055;BME280;74141;51.504;7.122;2023-12-07T03:50:06;101561.13;;;1.29;100.00
84055;BME280;74141;51.504;7.122;2023-12-07T03:52:31;101566.38;;;1.34;100.00
84055;BME280;74141;51.504;7.122;2023-12-07T03:54:56;101557.75;;;1.36;100.00
84055;BME280;74141;51.504;7.122;2023-12-07T03:57:21;101562.94;;;1.36;100.00
84055;BME280;74141;51.504;7.122;2023-12-07T03:59:47;101563.78;;;1.34;100.00
84055;BME280;74141;51.504;7.122;2023-12-07T04:02:12;101565.50;;;1.35;100.00
84055;BME280;74141;51.504;7.122;2023-12-07T04:04:37;101565.59;;;1.42;100.00
84055;BME280;74141;51.504;7.122;2023-12-07T04:07:03;101560.44;;;1.45;100.00
84055;BME280;74141;51.504;7.122;2023-12-07T04:09:29;101570.88;;;1.51;100.00
84055;BME280;74141;51.504;7.122;2023-12-07T04:11:55;101566.53;;;1.49;100.00
84055;BME280;74141;51.504;7.122;2023-12-07T04:14:21;101577.81;;;1.51;100.00
84055;BME280;74141;51.504;7.122;2023-12-07T04:16:46;101578.72;;;1.56;100.00
84055;BME280;74141;51.504;7.122;2023-12-07T04:19:12;101573.56;;;1.57;100.00
84055;BME280;74141;51.504;7.122;2023-12-07T04:21:37;101563.16;;;1.56;100.00
84055;BME280;74141;51.504;7.122;2023-12-07T04:24:03;101569.31;;;1.64;100.00
84055;BME280;74141;51.504;7.122;2023-12-07T04:26:29;101575.38;;;1.67;100.00
84055;BME280;74141;51.504;7.122;2023-12-07T04:28:54;101577.13;;;1.65;100.00
84055;BME280;74141;51.504;7.122;2023-12-07T04:31:20;101569.38;;;1.70;100.00
84055;BME280;74141;51.504;7.122;2023-12-07T04:33:46;101571.97;;;1.70;100.00
84055;BME280;74141;51.504;7.122;2023-12-07T04:36:11;101583.25;;;1.76;100.00
84055;BME280;74141;51.504;7.122;2023-12-07T04:38:37;101577.25;;;1.79;100.00
84055;BME280;74141;51.504;7.122;2023-12-07T04:41:03;101588.59;;;1.88;100.00
84055;BME280;74141;51.504;7.122;2023-12-07T04:43:28;101584.28;;;1.92;100.00
84055;BME280;74141;51.504;7.122;2023-12-07T04:45:53;101589.44;;;1.87;100.00
84055;BME280;74141;51.504;7.122;2023-12-07T04:48:19;101584.28;;;1.89;100.00
84055;BME280;74141;51.504;7.122;2023-12-07T04:50:44;101596.41;;;1.91;100.00
84055;BME280;74141;51.504;7.122;2023-12-07T04:53:09;101590.38;;;1.95;100.00
84055;BME280;74141;51.504;7.122;2023-12-07T04:55:34;101593.84;;;1.96;100.00
84055;BME280;74141;51.504;7.122;2023-12-07T04:58:01;101584.34;;;1.96;100.00
84055;BME280;74141;51.504;7.122;2023-12-07T05:00:26;101592.13;;;1.96;100.00
84055;BME280;74141;51.504;7.122;2023-12-07T05:02:52;101581.75;;;1.96;100.00
84055;BME280;74141;51.504;7.122;2023-12-07T05:05:18;101581.78;;;1.99;100.00
84055;BME280;74141;51.504;7.122;2023-12-07T05:07:44;101586.09;;;2.00;100.00
84055;BME280;74141;51.504;7.122;2023-12-07T05:10:09;101589.59;;;2.01;100.00
84055;BME280;74141;51.504;7.122;2023-12-07T05:12:34;101577.44;;;2.01;100.00
84055;BME280;74141;51.504;7.122;2023-12-07T05:15:01;101586.16;;;2.06;100.00
84055;BME280;74141;51.504;7.122;2023-12-07T05:17:27;101595.69;;;2.07;100.00
84055;BME280;74141;51.504;7.122;2023-12-07T05:19:52;101594.84;;;2.08;100.00
84055;BME280;74141;51.504;7.122;2023-12-07T05:22:18;101590.50;;;2.10;100.00
84055;BME280;74141;51.504;7.122;2023-12-07T05:24:43;101595.75;;;2.13;100.00
84055;BME280;74141;51.504;7.122;2023-12-07T05:27:08;101593.16;;;2.15;100.00
84055;BME280;74141;51.504;7.122;2023-12-07T05:29:34;101591.44;;;2.16;100.00
84055;BME280;74141;51.504;7.122;2023-12-07T05:31:59;101583.59;;;2.09;100.00
84055;BME280;74141;51.504;7.122;2023-12-07T05:34:24;101594.09;;;2.22;100.00
84055;BME280;74141;51.504;7.122;2023-12-07T05:36:49;101605.34;;;2.22;100.00
84055;BME280;74141;51.504;7.122;2023-12-07T05:39:15;101597.53;;;2.21;100.00
84055;BME280;74141;51.504;7.122;2023-12-07T05:41:42;101611.44;;;2.26;100.00
84055;BME280;74141;51.504;7.122;2023-12-07T05:44:08;101600.22;;;2.31;100.00
84055;BME280;74141;51.504;7.122;2023-12-07T05:46:35;101601.97;;;2.31;100.00
84055;BME280;74141;51.504;7.122;2023-12-07T05:49:00;101603.69;;;2.30;100.00
84055;BME280;74141;51.504;7.122;2023-12-07T05:51:26;101599.38;;;2.34;100.00
84055;BME280;74141;51.504;7.122;2023-12-07T05:53:51;101600.28;;;2.39;100.00
84055;BME280;74141;51.504;7.122;2023-12-07T05:56:18;101594.22;;;2.37;100.00
84055;BME280;74141;51.504;7.122;2023-12-07T05:58:44;101595.91;;;2.35;100.00
84055;BME280;74141;51.504;7.122;2023-12-07T06:01:10;101581.97;;;2.27;100.00
84055;BME280;74141;51.504;7.122;2023-12-07T06:03:35;101589.00;;;2.34;100.00
84055;BME280;74141;51.504;7.122;2023-12-07T06:06:00;101587.22;;;2.33;100.00
84055;BME280;74141;51.504;7.122;2023-12-07T06:08:26;101590.72;;;2.35;100.00
84055;BME280;74141;51.504;7.122;2023-12-07T06:10:51;101584.69;;;2.40;100.00
84055;BME280;74141;51.504;7.122;2023-12-07T06:13:16;101584.69;;;2.39;100.00
84055;BME280;74141;51.504;7.122;2023-12-07T06:15:42;101574.25;;;2.37;100.00
84055;BME280;74141;51.504;7.122;2023-12-07T06:18:07;101575.97;;;2.31;100.00
84055;BME280;74141;51.504;7.122;2023-12-07T06:20:33;101581.97;;;2.27;100.00
84055;BME280;74141;51.504;7.122;2023-12-07T06:23:00;101583.69;;;2.23;100.00
84055;BME280;74141;51.504;7.122;2023-12-07T06:25:25;101581.03;;;2.14;100.00
84055;BME280;74141;51.504;7.122;2023-12-07T06:27:50;101577.50;;;2.07;100.00
84055;BME280;74141;51.504;7.122;2023-12-07T06:30:15;101566.22;;;2.05;100.00
84055;BME280;74141;51.504;7.122;2023-12-07T06:32:41;101569.63;;;1.98;100.00
84055;BME280;74141;51.504;7.122;2023-12-07T06:35:07;101570.25;;;1.73;100.00
84055;BME280;74141;51.504;7.122;2023-12-07T06:37:32;101564.00;;;1.55;100.00
84055;BME280;74141;51.504;7.122;2023-12-07T06:39:58;101564.75;;;1.42;100.00
84055;BME280;74141;51.504;7.122;2023-12-07T06:42:25;101568.94;;;1.31;100.00
84055;BME280;74141;51.504;7.122;2023-12-07T06:44:50;101576.75;;;1.34;100.00
84055;BME280;74141;51.504;7.122;2023-12-07T06:47:16;101570.50;;;1.17;100.00
84055;BME280;74141;51.504;7.122;2023-12-07T06:49:41;101570.22;;;0.94;100.00
84055;BME280;74141;51.504;7.122;2023-12-07T06:52:06;101572.53;;;0.75;100.00
84055;BME280;74141;51.504;7.122;2023-12-07T06:54:33;101574.97;;;0.64;100.00
84055;BME280;74141;51.504;7.122;2023-12-07T06:56:58;101572.13;;;0.48;100.00
84055;BME280;74141;51.504;7.122;2023-12-07T06:59:23;101577.03;;;0.27;100.00
84055;BME280;74141;51.504;7.122;2023-12-07T07:01:48;101567.31;;;0.15;100.00
84055;BME280;74141;51.504;7.122;2023-12-07T07:04:14;101570.81;;;0.17;100.00
84055;BME280;74141;51.504;7.122;2023-12-07T07:06:42;101580.25;;;0.14;100.00
84055;BME280;74141;51.504;7.122;2023-12-07T07:09:08;101578.31;;;0.02;100.00
84055;BME280;74141;51.504;7.122;2023-12-07T07:11:33;101565.00;;;-0.19;100.00
84055;BME280;74141;51.504;7.122;2023-12-07T07:13:59;101569.44;;;-0.14;100.00
84055;BME280;74141;51.504;7.122;2023-12-07T07:16:25;101572.84;;;-0.15;100.00
84055;BME280;74141;51.504;7.122;2023-12-07T07:18:50;101575.25;;;-0.25;100.00
84055;BME280;74141;51.504;7.122;2023-12-07T07:21:15;101568.34;;;-0.26;100.00
84055;BME280;74141;51.504;7.122;2023-12-07T07:23:40;101572.81;;;-0.18;100.00
84055;BME280;74141;51.504;7.122;2023-12-07T07:26:06;101569.56;;;-0.08;100.00
84055;BME280;74141;51.504;7.122;2023-12-07T07:28:31;101575.19;;;-0.28;100.00
84055;BME280;74141;51.504;7.122;2023-12-07T07:30:56;101570.66;;;-0.41;100.00
84055;BME280;74141;51.504;7.122;2023-12-07T07:33:22;101574.88;;;-0.46;100.00
84055;BME280;74141;51.504;7.122;2023-12-07T07:35:47;101567.97;;;-0.46;100.00
84055;BME280;74141;51.504;7.122;2023-12-07T07:38:13;101559.31;;;-0.49;100.00
84055;BME280;74141;51.504;7.122;2023-12-07T07:40:39;101571.34;;;-0.51;100.00
84055;BME280;74141;51.504;7.122;2023-12-07T07:43:04;101575.53;;;-0.56;100.00
84055;BME280;74141;51.504;7.122;2023-12-07T07:45:30;101564.31;;;-0.58;100.00
84055;BME280;74141;51.504;7.122;2023-12-07T07:47:55;101561.66;;;-0.61;100.00
84055;BME280;74141;51.504;7.122;2023-12-07T07:50:20;101565.97;;;-0.60;100.00
84055;BME280;74141;51.504;7.122;2023-12-07T07:52:45;101572.00;;;-0.61;100.00
84055;BME280;74141;51.504;7.122;2023-12-07T07:55:11;101561.63;;;-0.63;100.00
84055;BME280;74141;51.504;7.122;2023-12-07T07:57:37;101568.81;;;-0.48;100.00
84055;BME280;74141;51.504;7.122;2023-12-07T08:00:02;101566.38;;;-0.39;100.00
84055;BME280;74141;51.504;7.122;2023-12-07T08:02:30;101556.81;;;-0.45;100.00
84055;BME280;74141;51.504;7.122;2023-12-07T08:04:55;101566.34;;;-0.42;100.00
84055;BME280;74141;51.504;7.122;2023-12-07T08:07:20;101555.97;;;-0.42;100.00
84055;BME280;74141;51.504;7.122;2023-12-07T08:09:46;101563.78;;;-0.41;100.00
84055;BME280;74141;51.504;7.122;2023-12-07T08:12:11;101554.50;;;-0.28;100.00
84055;BME280;74141;51.504;7.122;2023-12-07T08:14:36;101556.31;;;-0.24;100.00
84055;BME280;74141;51.504;7.122;2023-12-07T08:17:05;101558.09;;;-0.20;100.00
84055;BME280;74141;51.504;7.122;2023-12-07T08:19:31;101560.81;;;-0.13;100.00
84055;BME280;74141;51.504;7.122;2023-12-07T08:21:56;101573.00;;;-0.07;100.00
84055;BME280;74141;51.504;7.122;2023-12-07T08:24:21;101580.09;;;0.06;100.00
84055;BME280;74141;51.504;7.122;2023-12-07T08:26:47;101578.59;;;0.19;100.00
84055;BME280;74141;51.504;7.122;2023-12-07T08:29:12;101572.84;;;0.38;100.00
84055;BME280;74141;51.504;7.122;2023-12-07T08:31:39;101576.56;;;0.53;100.00
84055;BME280;74141;51.504;7.122;2023-12-07T08:34:05;101574.28;;;0.77;100.00
84055;BME280;74141;51.504;7.122;2023-12-07T08:36:30;101577.25;;;1.04;100.00
84055;BME280;74141;51.504;7.122;2023-12-07T08:38:55;101571.50;;;1.29;100.00
84055;BME280;74141;51.504;7.122;2023-12-07T08:41:20;101565.72;;;1.54;100.00
84055;BME280;74141;51.504;7.122;2023-12-07T08:43:46;101565.09;;;1.76;100.00
84055;BME280;74141;51.504;7.122;2023-12-07T08:46:11;101573.97;;;1.98;100.00
84055;BME280;74141;51.504;7.122;2023-12-07T08:48:37;101579.31;;;2.19;100.00
84055;BME280;74141;51.504;7.122;2023-12-07T08:51:03;101560.28;;;2.22;100.00
84055;BME280;74141;51.504;7.122;2023-12-07T08:53:28;101589.97;;;2.52;100.00
84055;BME280;74141;51.504;7.122;2023-12-07T08:55:54;101584.00;;;2.67;99.27
84055;BME280;74141;51.504;7.122;2023-12-07T08:58:19;101577.13;;;2.73;97.89
84055;BME280;74141;51.504;7.122;2023-12-07T09:00:44;101576.31;;;2.86;98.21
84055;BME280;74141;51.504;7.122;2023-12-07T09:03:10;101577.25;;;2.96;97.27
84055;BME280;74141;51.504;7.122;2023-12-07T09:05:35;101578.19;;;3.13;98.17
84055;BME280;74141;51.504;7.122;2023-12-07T09:08:00;101586.03;;;3.25;97.84
84055;BME280;74141;51.504;7.122;2023-12-07T09:10:26;101596.47;;;3.29;97.06
84055;BME280;74141;51.504;7.122;2023-12-07T09:12:51;101595.66;;;3.39;96.48
84055;BME280;74141;51.504;7.122;2023-12-07T09:15:16;101595.69;;;3.53;96.37
84055;BME280;74141;51.504;7.122;2023-12-07T09:17:42;101594.84;;;3.63;96.39
84055;BME280;74141;51.504;7.122;2023-12-07T09:20:08;101584.44;;;3.64;96.61
84055;BME280;74141;51.504;7.122;2023-12-07T09:22:39;101580.97;;;3.71;95.50
84055;BME280;74141;51.504;7.122;2023-12-07T09:25:05;101577.53;;;3.74;94.22
84055;BME280;74141;51.504;7.122;2023-12-07T09:27:30;101578.34;;;3.71;94.68
84055;BME280;74141;51.504;7.122;2023-12-07T09:29:58;101574.06;;;3.87;94.04
84055;BME280;74141;51.504;7.122;2023-12-07T09:32:23;101579.25;;;3.84;93.15
84055;BME280;74141;51.504;7.122;2023-12-07T09:34:48;101581.88;;;3.82;93.95
84055;BME280;74141;51.504;7.122;2023-12-07T09:37:16;101576.66;;;3.82;93.77
84055;BME280;74141;51.504;7.122;2023-12-07T09:39:41;101575.75;;;3.76;93.13
84055;BME280;74141;51.504;7.122;2023-12-07T09:42:06;101573.16;;;3.83;92.81
84055;BME280;74141;51.504;7.122;2023-12-07T09:44:32;101574.09;;;4.11;93.90
84055;BME280;74141;51.504;7.122;2023-12-07T09:46:57;101571.47;;;4.08;92.85
84055;BME280;74141;51.504;7.122;2023-12-07T09:49:22;101567.09;;;4.05;93.01
84055;BME280;74141;51.504;7.122;2023-12-07T09:51:49;101561.03;;;4.03;91.82
84055;BME280;74141;51.504;7.122;2023-12-07T09:54:15;101567.09;;;4.05;92.52
84055;BME280;74141;51.504;7.122;2023-12-07T09:56:41;101555.84;;;4.11;91.67
84055;BME280;74141;51.504;7.122;2023-12-07T09:59:08;101557.56;;;4.10;91.39
84055;BME280;74141;51.504;7.122;2023-12-07T10:01:33;101553.22;;;4.20;91.55
84055;BME280;74141;51.504;7.122;2023-12-07T10:04:21;101542.75;;;4.23;91.67
84055;BME280;74141;51.504;7.122;2023-12-07T10:06:52;101546.25;;;4.25;90.14
84055;BME280;74141;51.504;7.122;2023-12-07T10:09:18;101539.31;;;4.27;89.58
84055;BME280;74141;51.504;7.122;2023-12-07T10:11:46;101534.94;;;4.32;89.97
84055;BME280;74141;51.504;7.122;2023-12-07T10:14:12;101538.41;;;4.42;89.65
84055;BME280;74141;51.504;7.122;2023-12-07T10:16:37;101531.47;;;4.36;89.41
84055;BME280;74141;51.504;7.122;2023-12-07T10:19:15;101534.06;;;4.42;89.28
84055;BME280;74141;51.504;7.122;2023-12-07T10:21:44;101520.16;;;4.46;89.72
84055;BME280;74141;51.504;7.122;2023-12-07T10:24:11;101508.81;;;4.47;87.63
84055;BME280;74141;51.504;7.122;2023-12-07T10:26:37;101504.50;;;4.46;87.30
84055;BME280;74141;51.504;7.122;2023-12-07T10:29:06;101508.84;;;4.44;86.95
84055;BME280;74141;51.504;7.122;2023-12-07T10:31:32;101501.00;;;4.47;88.21
84055;BME280;74141;51.504;7.122;2023-12-07T10:33:59;101504.47;;;4.55;87.60
84055;BME280;74141;51.504;7.122;2023-12-07T10:36:25;101501.84;;;4.60;85.75
84055;BME280;74141;51.504;7.122;2023-12-07T10:38:50;101495.75;;;4.65;85.62
84055;BME280;74141;51.504;7.122;2023-12-07T10:41:18;101491.41;;;4.67;85.88
84055;BME280;74141;51.504;7.122;2023-12-07T10:43:48;101490.50;;;4.70;85.70
84055;BME280;74141;51.504;7.122;2023-12-07T10:46:15;101452.28;;;4.55;85.93
84055;BME280;74141;51.504;7.122;2023-12-07T10:48:44;101482.63;;;4.85;84.68
84055;BME280;74141;51.504;7.122;2023-12-07T10:51:25;101467.84;;;4.82;84.19
84055;BME280;74141;51.504;7.122;2023-12-07T10:53:55;101468.69;;;4.86;83.89
84055;BME280;74141;51.504;7.122;2023-12-07T10:56:29;101463.47;;;4.89;82.95
84055;BME280;74141;51.504;7.122;2023-12-07T10:58:58;101453.03;;;4.87;82.58
84055;BME280;74141;51.504;7.122;2023-12-07T11:01:24;101448.66;;;4.89;81.90
84055;BME280;74141;51.504;7.122;2023-12-07T11:03:51;101451.28;;;4.92;82.49
84055;BME280;74141;51.504;7.122;2023-12-07T11:06:18;101449.50;;;4.91;83.01
84055;BME280;74141;51.504;7.122;2023-12-07T11:08:57;101439.09;;;4.88;83.69
84055;BME280;74141;51.504;7.122;2023-12-07T11:11:37;101433.84;;;4.91;82.10
84055;BME280;74141;51.504;7.122;2023-12-07T11:14:06;101439.91;;;4.98;82.69
84055;BME280;74141;51.504;7.122;2023-12-07T11:16:34;101429.47;;;4.99;81.46
84055;BME280;74141;51.504;7.122;2023-12-07T11:18:59;101424.22;;;5.04;80.06
84055;BME280;74141;51.504;7.122;2023-12-07T11:21:25;101412.09;;;4.92;80.31
84055;BME280;74141;51.504;7.122;2023-12-07T11:23:52;101420.75;;;5.00;79.76
84055;BME280;74141;51.504;7.122;2023-12-07T11:26:23;101414.66;;;5.03;79.68
84055;BME280;74141;51.504;7.122;2023-12-07T11:28:50;101406.81;;;5.07;79.95
84055;BME280;74141;51.504;7.122;2023-12-07T11:31:16;101403.31;;;5.04;79.20
84055;BME280;74141;51.504;7.122;2023-12-07T11:33:42;101413.72;;;5.13;78.74
84055;BME280;74141;51.504;7.122;2023-12-07T11:36:10;101400.66;;;5.14;79.50
84055;BME280;74141;51.504;7.122;2023-12-07T11:38:38;101393.72;;;5.13;79.17
84055;BME280;74141;51.504;7.122;2023-12-07T11:41:03;101394.56;;;5.14;78.69
84055;BME280;74141;51.504;7.122;2023-12-07T11:45:57;101379.78;;;5.11;78.55
84055;BME280;74141;51.504;7.122;2023-12-07T11:48:23;101371.00;;;5.21;78.05
84055;BME280;74141;51.504;7.122;2023-12-07T11:50:55;101362.28;;;5.22;77.66
84055;BME280;74141;51.504;7.122;2023-12-07T11:53:33;101363.19;;;5.15;78.38
84055;BME280;74141;51.504;7.122;2023-12-07T11:56:00;101355.34;;;5.18;78.41
84055;BME280;74141;51.504;7.122;2023-12-07T11:58:27;101338.94;;;5.04;78.90
84055;BME280;74141;51.504;7.122;2023-12-07T12:00:53;101345.84;;;5.08;79.06
84055;BME280;74141;51.504;7.122;2023-12-07T12:03:20;101343.28;;;5.04;78.61
84055;BME280;74141;51.504;7.122;2023-12-07T12:05:46;101343.22;;;5.13;79.92
84055;BME280;74141;51.504;7.122;2023-12-07T12:08:11;101338.88;;;5.13;80.04
84055;BME280;74141;51.504;7.122;2023-12-07T12:10:38;101344.94;;;5.14;80.09
84055;BME280;74141;51.504;7.122;2023-12-07T12:13:04;101343.22;;;5.10;79.88
84055;BME280;74141;51.504;7.122;2023-12-07T12:15:30;101331.94;;;5.03;80.77
84055;BME280;74141;51.504;7.122;2023-12-07T12:17:56;101329.34;;;5.03;80.81
84055;BME280;74141;51.504;7.122;2023-12-07T12:20:22;101327.63;;;4.99;80.31
84055;BME280;74141;51.504;7.122;2023-12-07T12:22:49;101331.09;;;5.04;80.62
84055;BME280;74141;51.504;7.122;2023-12-07T12:25:14;101338.06;;;5.02;81.02
84055;BME280;74141;51.504;7.122;2023-12-07T12:27:40;101323.34;;;4.92;80.85
84055;BME280;74141;51.504;7.122;2023-12-07T12:30:06;101330.28;;;4.93;80.62
84055;BME280;74141;51.504;7.122;2023-12-07T12:32:43;101332.13;;;4.82;80.60
84055;BME280;74141;51.504;7.122;2023-12-07T12:35:08;101333.88;;;4.77;80.33
84055;BME280;74141;51.504;7.122;2023-12-07T12:37:33;101334.84;;;4.64;80.45
84055;BME280;74141;51.504;7.122;2023-12-07T12:40:05;101329.66;;;4.57;81.04
84055;BME280;74141;51.504;7.122;2023-12-07T12:42:30;101327.97;;;4.50;81.71
84055;BME280;74141;51.504;7.122;2023-12-07T12:44:56;101321.91;;;4.39;81.68
84055;BME280;74141;51.504;7.122;2023-12-07T12:47:22;101318.41;;;4.41;81.42
84055;BME280;74141;51.504;7.122;2023-12-07T12:49:47;101315.84;;;4.34;80.37
84055;BME280;74141;51.504;7.122;2023-12-07T12:52:15;101308.94;;;4.27;80.08